Time;durP1;ratioP1;P1;durP2;ratioP2;P2;SDS_P1;SDS_P2;PMS_P1;PMS_P2;Temp;Humidity;BMP_temperature;BMP_pressure;BME280_temperature;BME280_humidity;BME280_pressure;Samples;Min_cycle;Max_cycle;Signal;HPM_P1;HPM_P2
2021/03/06 00:00:51;;;;;;;0.60;0.60;;;-2.20;99.90;;;;;;4913114;29;20277;-80
2021/03/06 00:03:17;;;;;;;0.50;0.50;;;-2.30;99.90;;;;;;4913790;29;20692;-80
2021/03/06 00:05:43;;;;;;;0.60;0.60;;;-2.30;99.90;;;;;;4913069;29;20248;-80
2021/03/06 00:08:09;;;;;;;0.60;0.60;;;-2.40;99.90;;;;;;4912778;29;20229;-80
2021/03/06 00:10:35;;;;;;;0.60;0.60;;;-2.40;99.90;;;;;;4912788;29;20209;-80
2021/03/06 00:13:01;;;;;;;0.52;0.52;;;-2.40;99.90;;;;;;4913290;29;20581;-80
2021/03/06 00:15:28;;;;;;;0.60;0.60;;;-2.40;99.90;;;;;;4912890;29;20208;-80
2021/03/06 00:17:55;;;;;;;0.60;0.60;;;-2.40;99.90;;;;;;4912848;29;20197;-80
2021/03/06 00:20:22;;;;;;;0.60;0.60;;;-2.30;99.90;;;;;;4912645;29;20228;-80
2021/03/06 00:22:49;;;;;;;0.57;0.57;;;-2.40;99.90;;;;;;4912953;29;20616;-80
2021/03/06 00:25:18;;;;;;;0.57;0.57;;;-2.30;99.90;;;;;;4912985;29;20205;-80
2021/03/06 00:27:44;;;;;;;0.60;0.60;;;-2.30;99.90;;;;;;4912910;29;20227;-80
2021/03/06 00:30:12;;;;;;;0.60;0.60;;;-2.20;99.90;;;;;;4912777;29;20213;-80
2021/03/06 00:32:39;;;;;;;0.60;0.60;;;-2.30;99.90;;;;;;4912549;29;20448;-80
2021/03/06 00:35:08;;;;;;;0.60;0.60;;;-2.10;99.90;;;;;;4912703;29;20208;-80
2021/03/06 00:37:34;;;;;;;0.60;0.60;;;-2.20;99.90;;;;;;4912708;29;20220;-80
2021/03/06 00:40:01;;;;;;;0.50;0.50;;;-2.40;99.90;;;;;;4912663;29;20209;-80
2021/03/06 00:42:27;;;;;;;0.60;0.60;;;-2.50;99.90;;;;;;4912438;29;20201;-80
2021/03/06 00:44:53;;;;;;;0.60;0.60;;;-2.60;99.90;;;;;;4912473;29;20232;-80
2021/03/06 00:47:22;;;;;;;0.60;0.60;;;-2.60;99.90;;;;;;4912374;29;20779;-79
2021/03/06 00:49:48;;;;;;;0.60;0.60;;;-2.50;99.90;;;;;;4910530;29;20681;-79
2021/03/06 00:52:15;;;;;;;0.60;0.60;;;-2.50;99.90;;;;;;4912600;29;20276;-79
2021/03/06 00:54:42;;;;;;;0.65;0.65;;;-2.50;99.90;;;;;;4912287;29;20204;-79
2021/03/06 00:57:11;;;;;;;0.60;0.60;;;-2.50;99.90;;;;;;4912167;29;20257;-80
2021/03/06 00:59:37;;;;;;;0.60;0.60;;;-2.50;99.90;;;;;;4912068;29;20216;-79
2021/03/06 01:02:03;;;;;;;0.50;0.50;;;-2.50;99.90;;;;;;4912283;29;20209;-80
2021/03/06 01:04:32;;;;;;;0.60;0.60;;;-2.50;99.90;;;;;;4912333;29;20212;-80
2021/03/06 01:06:58;;;;;;;0.60;0.60;;;-2.50;99.90;;;;;;4911964;29;20252;-80
2021/03/06 01:09:25;;;;;;;0.60;0.60;;;-2.60;99.90;;;;;;4911805;29;20208;-79
2021/03/06 01:11:52;;;;;;;0.55;0.55;;;-2.60;99.90;;;;;;4911918;29;20352;-79
2021/03/06 01:14:18;;;;;;;0.57;0.57;;;-2.50;99.90;;;;;;4912108;29;20217;-79
2021/03/06 01:16:44;;;;;;;0.55;0.55;;;-2.60;99.90;;;;;;4912228;29;20213;-79
2021/03/06 01:19:10;;;;;;;0.50;0.50;;;-2.60;99.90;;;;;;4911908;29;20217;-79
2021/03/06 01:21:36;;;;;;;0.50;0.50;;;-2.50;99.90;;;;;;4911910;29;20264;-79
2021/03/06 01:24:03;;;;;;;0.60;0.60;;;-2.60;99.90;;;;;;4912406;29;20212;-79
2021/03/06 01:26:30;;;;;;;0.68;0.68;;;-2.70;99.90;;;;;;4912025;29;20272;-80
2021/03/06 01:28:56;;;;;;;0.60;0.60;;;-2.70;99.90;;;;;;4911769;29;20275;-79
2021/03/06 01:31:22;;;;;;;0.65;0.65;;;-2.70;99.90;;;;;;4911625;29;20474;-80
2021/03/06 01:33:48;;;;;;;0.60;0.60;;;-2.80;99.90;;;;;;4912081;29;20559;-79
2021/03/06 01:36:14;;;;;;;0.60;0.60;;;-2.70;99.90;;;;;;4911951;29;20213;-79
2021/03/06 01:38:41;;;;;;;0.60;0.60;;;-2.70;99.90;;;;;;4911725;29;20570;-79
2021/03/06 01:41:07;;;;;;;0.60;0.60;;;-2.70;99.90;;;;;;4911693;29;20213;-79
2021/03/06 01:43:34;;;;;;;0.60;0.60;;;-2.70;99.90;;;;;;4912065;29;20205;-79
2021/03/06 01:46:00;;;;;;;0.60;0.60;;;-2.70;99.90;;;;;;4912110;29;20212;-79
2021/03/06 01:48:26;;;;;;;0.60;0.60;;;-2.70;99.90;;;;;;4911555;29;20727;-79
2021/03/06 01:50:52;;;;;;;0.60;0.60;;;-2.70;99.90;;;;;;4912086;29;20220;-79
2021/03/06 01:53:19;;;;;;;0.60;0.60;;;-2.70;99.90;;;;;;4913605;29;20204;-79
2021/03/06 01:55:47;;;;;;;0.60;0.60;;;-2.70;99.90;;;;;;4914422;29;20296;-79
2021/03/06 01:58:14;;;;;;;0.60;0.60;;;-2.70;99.90;;;;;;4914352;29;20201;-79
2021/03/06 02:00:42;;;;;;;0.60;0.60;;;-2.70;99.90;;;;;;4914343;29;20354;-79
2021/03/06 02:03:08;;;;;;;0.60;0.60;;;-2.70;99.90;;;;;;4914129;29;20201;-79
2021/03/06 02:05:34;;;;;;;0.60;0.60;;;-2.70;99.90;;;;;;4914086;29;20247;-79
2021/03/06 02:08:02;;;;;;;0.60;0.60;;;-2.80;99.90;;;;;;4914462;29;20236;-79
2021/03/06 02:10:31;;;;;;;0.50;0.50;;;-2.70;99.90;;;;;;4914126;29;20259;-79
2021/03/06 02:13:08;;;;;;;0.60;0.60;;;-2.70;99.90;;;;;;4914069;29;20582;-79
2021/03/06 02:15:45;;;;;;;0.60;0.60;;;-2.70;99.90;;;;;;4914104;29;20247;-79
2021/03/06 02:18:16;;;;;;;0.60;0.60;;;-2.70;99.90;;;;;;4913884;29;20216;-79
2021/03/06 02:20:50;;;;;;;0.60;0.60;;;-2.80;99.90;;;;;;4913842;29;20217;-79
2021/03/06 02:23:39;;;;;;;0.60;0.60;;;-2.80;99.90;;;;;;4914348;29;20205;-79
2021/03/06 02:26:21;;;;;;;0.50;0.50;;;-2.80;99.90;;;;;;4913667;29;20209;-79
2021/03/06 02:28:52;;;;;;;0.60;0.60;;;-2.70;99.90;;;;;;4914101;29;20233;-79
2021/03/06 02:31:21;;;;;;;0.60;0.60;;;-2.80;99.90;;;;;;4913917;29;20237;-79
2021/03/06 02:33:53;;;;;;;0.50;0.50;;;-2.80;99.90;;;;;;4914183;29;20224;-79
2021/03/06 02:36:23;;;;;;;0.60;0.60;;;-2.80;99.90;;;;;;4913652;29;20217;-79
2021/03/06 02:38:53;;;;;;;0.60;0.60;;;-2.80;99.90;;;;;;4913831;29;20213;-79
2021/03/06 02:41:21;;;;;;;0.60;0.60;;;-2.90;99.90;;;;;;4913853;29;20217;-80
2021/03/06 02:43:49;;;;;;;0.50;0.50;;;-3.00;99.90;;;;;;4914077;29;20277;-79
2021/03/06 02:46:15;;;;;;;0.60;0.60;;;-3.00;99.90;;;;;;4913714;29;20209;-79
2021/03/06 02:48:43;;;;;;;0.60;0.60;;;-3.00;99.90;;;;;;4913354;29;20233;-79
2021/03/06 02:51:09;;;;;;;0.60;0.60;;;-3.00;99.90;;;;;;4913113;29;20307;-79
2021/03/06 02:53:36;;;;;;;0.60;0.60;;;-3.00;99.90;;;;;;4913248;29;20209;-79
2021/03/06 02:56:02;;;;;;;0.50;0.50;;;-3.10;99.90;;;;;;4913646;29;20232;-79
2021/03/06 02:58:42;;;;;;;0.60;0.60;;;-3.10;99.90;;;;;;4913196;29;20205;-78
2021/03/06 03:01:16;;;;;;;0.60;0.60;;;-3.10;99.90;;;;;;4913127;29;20222;-78
2021/03/06 03:03:56;;;;;;;0.60;0.60;;;-3.10;99.90;;;;;;4912807;29;20212;-78
2021/03/06 03:06:28;;;;;;;0.50;0.50;;;-3.10;99.90;;;;;;4912659;29;20233;-77
2021/03/06 03:09:06;;;;;;;0.60;0.60;;;-3.20;99.90;;;;;;4912921;29;20914;-78
2021/03/06 03:11:38;;;;;;;0.60;0.60;;;-3.20;99.90;;;;;;4913232;29;20223;-78
2021/03/06 03:14:09;;;;;;;0.60;0.60;;;-3.10;99.90;;;;;;4913036;29;20580;-78
2021/03/06 03:16:41;;;;;;;0.60;0.60;;;-3.10;99.90;;;;;;4912917;29;20272;-78
2021/03/06 03:19:13;;;;;;;0.50;0.50;;;-3.10;99.90;;;;;;4912902;29;20211;-78
2021/03/06 03:21:48;;;;;;;0.60;0.60;;;-3.10;99.90;;;;;;4912826;29;20272;-78
2021/03/06 03:24:17;;;;;;;0.60;0.60;;;-3.00;99.90;;;;;;4913144;29;20563;-78
2021/03/06 03:26:47;;;;;;;0.60;0.60;;;-3.00;99.90;;;;;;4912893;29;20205;-78
2021/03/06 03:29:15;;;;;;;0.60;0.60;;;-3.00;99.90;;;;;;4912583;29;20260;-78
2021/03/06 03:31:45;;;;;;;0.60;0.60;;;-3.00;99.90;;;;;;4912723;29;20656;-78
2021/03/06 03:34:13;;;;;;;0.60;0.60;;;-3.00;99.90;;;;;;4912815;29;20216;-78
2021/03/06 03:36:40;;;;;;;0.60;0.60;;;-3.00;99.90;;;;;;4912469;29;20495;-78
2021/03/06 03:39:08;;;;;;;0.60;0.60;;;-3.00;99.90;;;;;;4912326;29;20212;-78
2021/03/06 03:41:35;;;;;;;0.60;0.60;;;-2.90;99.90;;;;;;4912340;29;20201;-78
2021/03/06 03:44:02;;;;;;;0.60;0.60;;;-2.90;99.90;;;;;;4910951;29;20208;-78
2021/03/06 03:46:30;;;;;;;0.60;0.60;;;-3.00;99.90;;;;;;4912929;29;20209;-78
2021/03/06 03:48:57;;;;;;;0.50;0.50;;;-3.00;99.90;;;;;;4913037;29;20225;-78
2021/03/06 03:51:25;;;;;;;0.60;0.60;;;-3.00;99.90;;;;;;4912864;29;20232;-77
2021/03/06 03:53:51;;;;;;;0.60;0.60;;;-3.00;99.90;;;;;;4912983;29;20208;-78
2021/03/06 03:56:18;;;;;;;0.60;0.60;;;-3.00;99.90;;;;;;4913308;29;20209;-78
2021/03/06 03:58:45;;;;;;;0.60;0.60;;;-3.00;99.90;;;;;;4913351;29;20227;-78
2021/03/06 04:01:11;;;;;;;0.60;0.60;;;-2.90;99.90;;;;;;4912999;29;20235;-78
2021/03/06 04:03:39;;;;;;;0.60;0.60;;;-2.90;99.90;;;;;;4912894;29;20213;-78
2021/03/06 04:06:05;;;;;;;0.60;0.60;;;-3.00;99.90;;;;;;4912819;29;20241;-78
2021/03/06 04:08:32;;;;;;;0.57;0.57;;;-3.00;99.90;;;;;;4913036;29;20233;-78
2021/03/06 04:10:58;;;;;;;0.60;0.60;;;-3.00;99.90;;;;;;4912959;29;20245;-78
2021/03/06 04:13:25;;;;;;;0.60;0.60;;;-3.00;99.90;;;;;;4912368;29;20228;-78
2021/03/06 04:15:51;;;;;;;0.50;0.50;;;-3.00;99.90;;;;;;4912743;29;20272;-78
2021/03/06 04:18:17;;;;;;;0.60;0.60;;;-3.00;99.90;;;;;;4913058;29;20212;-78
2021/03/06 04:20:43;;;;;;;0.60;0.60;;;-3.00;99.90;;;;;;4912498;29;20216;-78
2021/03/06 04:23:09;;;;;;;0.60;0.60;;;-3.00;99.90;;;;;;4912544;29;20423;-79
2021/03/06 04:25:36;;;;;;;0.60;0.60;;;-3.10;99.90;;;;;;4910787;29;20213;-78
2021/03/06 04:28:03;;;;;;;0.50;0.50;;;-3.00;99.90;;;;;;4912570;29;20653;-78
2021/03/06 04:30:29;;;;;;;0.60;0.60;;;-3.00;99.90;;;;;;4911361;29;20418;-78
2021/03/06 04:32:55;;;;;;;0.60;0.60;;;-3.00;99.90;;;;;;4912249;29;20454;-78
2021/03/06 04:35:21;;;;;;;0.60;0.60;;;-3.10;99.90;;;;;;4911937;29;20691;-78
2021/03/06 04:37:47;;;;;;;0.60;0.60;;;-3.10;99.90;;;;;;4912660;29;20219;-78
2021/03/06 04:40:14;;;;;;;0.60;0.60;;;-3.00;99.90;;;;;;4912097;29;20205;-78
2021/03/06 04:42:42;;;;;;;0.60;0.60;;;-3.10;99.90;;;;;;4912012;29;20672;-78
2021/03/06 04:45:10;;;;;;;0.60;0.60;;;-3.20;99.90;;;;;;4911989;29;20231;-78
2021/03/06 04:47:40;;;;;;;0.50;0.50;;;-3.10;99.90;;;;;;4911819;29;20229;-78
2021/03/06 04:50:07;;;;;;;0.60;0.60;;;-3.10;99.90;;;;;;4912163;29;20645;-78
2021/03/06 04:52:33;;;;;;;0.60;0.60;;;-3.00;99.90;;;;;;4912118;29;20208;-78
2021/03/06 04:55:00;;;;;;;0.60;0.60;;;-2.90;99.90;;;;;;4912228;29;20220;-78
2021/03/06 04:57:26;;;;;;;0.50;0.50;;;-3.00;99.90;;;;;;4911759;29;20205;-78
2021/03/06 04:59:54;;;;;;;0.60;0.60;;;-2.90;99.90;;;;;;4912130;29;20266;-78
2021/03/06 05:02:21;;;;;;;0.60;0.60;;;-2.90;99.90;;;;;;4911805;29;20217;-78
2021/03/06 05:04:47;;;;;;;0.60;0.60;;;-2.80;99.90;;;;;;4912470;29;20209;-78
2021/03/06 05:07:13;;;;;;;0.57;0.57;;;-2.70;99.90;;;;;;4911707;29;20577;-78
2021/03/06 05:09:39;;;;;;;0.50;0.50;;;-2.70;99.90;;;;;;4911789;29;20954;-78
2021/03/06 05:12:06;;;;;;;0.60;0.60;;;-2.60;99.90;;;;;;4911912;29;20268;-78
2021/03/06 05:14:32;;;;;;;0.60;0.60;;;-2.60;99.90;;;;;;4912413;29;20673;-78
2021/03/06 05:16:59;;;;;;;0.60;0.60;;;-2.50;99.90;;;;;;4911996;29;20197;-78
2021/03/06 05:19:26;;;;;;;0.60;0.60;;;-2.50;99.90;;;;;;4911527;29;20280;-79
2021/03/06 05:21:52;;;;;;;0.50;0.50;;;-2.40;99.90;;;;;;4911790;29;20244;-79
2021/03/06 05:24:18;;;;;;;0.60;0.60;;;-2.40;99.90;;;;;;4912035;29;20212;-79
2021/03/06 05:26:44;;;;;;;0.60;0.60;;;-2.30;99.90;;;;;;4915675;29;20228;-79
2021/03/06 05:29:10;;;;;;;0.60;0.60;;;-2.30;99.90;;;;;;4915290;29;20237;-79
2021/03/06 05:31:36;;;;;;;0.60;0.60;;;-2.30;99.90;;;;;;4915172;29;20216;-79
2021/03/06 05:34:03;;;;;;;0.60;0.60;;;-2.20;99.90;;;;;;4915850;29;20213;-79
2021/03/06 05:36:30;;;;;;;0.50;0.50;;;-2.20;99.90;;;;;;4915366;29;20213;-79
2021/03/06 05:38:56;;;;;;;0.60;0.60;;;-2.20;99.90;;;;;;4915406;29;20268;-79
2021/03/06 05:41:22;;;;;;;0.60;0.60;;;-2.10;99.90;;;;;;4915144;29;20213;-79
2021/03/06 05:43:48;;;;;;;0.60;0.60;;;-2.10;99.90;;;;;;4915565;29;20213;-79
2021/03/06 05:46:15;;;;;;;0.60;0.60;;;-2.00;99.90;;;;;;4915313;29;20209;-79
2021/03/06 05:48:41;;;;;;;0.60;0.60;;;-1.90;99.90;;;;;;4914895;29;20229;-79
2021/03/06 05:51:08;;;;;;;0.60;0.60;;;-1.80;99.90;;;;;;4914908;29;20619;-79
2021/03/06 05:53:39;;;;;;;0.60;0.60;;;-1.70;99.90;;;;;;4915051;29;20212;-79
2021/03/06 05:56:07;;;;;;;0.60;0.60;;;-1.70;99.90;;;;;;4915389;29;20213;-79
2021/03/06 05:58:34;;;;;;;0.50;0.50;;;-1.70;99.90;;;;;;4915187;29;20209;-79
2021/03/06 06:01:02;;;;;;;0.52;0.52;;;-1.60;99.90;;;;;;4915194;29;20205;-79
2021/03/06 06:03:31;;;;;;;0.60;0.60;;;-1.60;99.90;;;;;;4914728;29;20208;-79
2021/03/06 06:05:57;;;;;;;0.60;0.60;;;-1.50;99.90;;;;;;4914563;29;20790;-79
2021/03/06 06:08:25;;;;;;;0.50;0.50;;;-1.40;99.90;;;;;;4914542;29;20459;-79
2021/03/06 06:10:51;;;;;;;0.60;0.60;;;-1.30;99.90;;;;;;4914714;29;20581;-79
2021/03/06 06:13:18;;;;;;;0.60;0.60;;;-1.30;99.90;;;;;;4915163;29;20283;-79
2021/03/06 06:15:44;;;;;;;0.60;0.60;;;-1.30;99.90;;;;;;4914737;29;20211;-79
2021/03/06 06:18:10;;;;;;;0.50;0.50;;;-1.30;99.90;;;;;;4914423;29;20392;-79
2021/03/06 06:20:38;;;;;;;0.60;0.60;;;-1.20;99.90;;;;;;4914500;29;20272;-79
2021/03/06 06:23:12;;;;;;;0.57;0.57;;;-1.10;99.90;;;;;;4914856;29;20295;-80
2021/03/06 06:25:39;;;;;;;0.60;0.60;;;-1.10;99.90;;;;;;4914321;29;20264;-79
2021/03/06 06:28:07;;;;;;;0.60;0.60;;;-1.00;99.90;;;;;;4914591;29;20225;-79
2021/03/06 06:30:34;;;;;;;0.60;0.60;;;-1.00;99.90;;;;;;4914580;29;20253;-80
2021/03/06 06:33:00;;;;;;;0.60;0.60;;;-1.00;99.90;;;;;;4914700;29;20644;-79
2021/03/06 06:35:27;;;;;;;0.50;0.50;;;-0.90;99.90;;;;;;4914358;29;20205;-80
2021/03/06 06:37:58;;;;;;;0.60;0.60;;;-0.90;99.90;;;;;;4913654;29;20216;-80
2021/03/06 06:40:26;;;;;;;0.50;0.50;;;-0.90;99.90;;;;;;4914390;29;20715;-79
2021/03/06 06:42:54;;;;;;;0.60;0.60;;;-0.80;99.90;;;;;;4914081;29;20630;-79
2021/03/06 06:45:20;;;;;;;0.60;0.60;;;-0.80;99.90;;;;;;4914145;29;20221;-79
2021/03/06 06:47:49;;;;;;;0.55;0.55;;;-0.70;99.90;;;;;;4914611;29;20225;-79
2021/03/06 06:50:27;;;;;;;0.60;0.60;;;-0.70;99.90;;;;;;4913926;29;20237;-79
2021/03/06 06:52:53;;;;;;;0.50;0.50;;;-0.60;99.90;;;;;;4913918;29;20212;-79
2021/03/06 06:55:19;;;;;;;0.50;0.50;;;-0.60;99.90;;;;;;4914191;29;20213;-79
2021/03/06 06:57:49;;;;;;;0.50;0.50;;;-0.50;99.90;;;;;;4914270;29;20288;-80
2021/03/06 07:00:18;;;;;;;0.50;0.50;;;-0.50;99.90;;;;;;4914216;29;20543;-80
2021/03/06 07:02:52;;;;;;;0.50;0.50;;;-0.50;99.90;;;;;;4914114;29;20205;-80
2021/03/06 07:05:26;;;;;;;0.60;0.60;;;-0.40;99.90;;;;;;4913847;29;20205;-80
2021/03/06 07:07:52;;;;;;;0.50;0.50;;;-0.30;99.90;;;;;;4913667;29;20319;-80
2021/03/06 07:10:21;;;;;;;0.50;0.50;;;-0.30;99.90;;;;;;4914098;29;20221;-80
2021/03/06 07:12:57;;;;;;;0.50;0.50;;;-0.30;99.90;;;;;;4914213;29;20281;-80
2021/03/06 07:15:26;;;;;;;0.60;0.60;;;-0.20;99.90;;;;;;4913811;29;20205;-80
2021/03/06 07:17:54;;;;;;;0.60;0.60;;;-0.10;99.90;;;;;;4913803;29;20209;-80
2021/03/06 07:20:34;;;;;;;0.50;0.50;;;0.00;99.90;;;;;;4913699;29;20220;-80
2021/03/06 07:23:16;;;;;;;0.50;0.50;;;0.00;99.90;;;;;;4913988;29;20216;-79
2021/03/06 07:25:43;;;;;;;0.50;0.50;;;0.00;99.90;;;;;;4914057;29;20209;-81
2021/03/06 07:28:10;;;;;;;0.50;0.50;;;0.10;99.90;;;;;;4919514;29;20233;-82
2021/03/06 07:30:37;;;;;;;0.50;0.50;;;0.10;99.90;;;;;;4913428;29;20209;-79
2021/03/06 07:33:06;;;;;;;0.50;0.50;;;0.20;99.90;;;;;;4913726;29;20253;-79
2021/03/06 07:35:35;;;;;;;0.50;0.50;;;0.20;99.90;;;;;;4913583;29;20217;-79
2021/03/06 07:38:04;;;;;;;0.60;0.60;;;0.30;99.90;;;;;;4913732;29;20211;-79
2021/03/06 07:40:33;;;;;;;0.50;0.50;;;0.40;99.90;;;;;;4913600;29;20209;-78
2021/03/06 07:43:00;;;;;;;0.55;0.55;;;0.50;99.90;;;;;;4913419;29;20205;-79
2021/03/06 07:45:27;;;;;;;0.50;0.50;;;0.60;99.90;;;;;;4913066;29;20264;-79
2021/03/06 07:48:00;;;;;;;0.50;0.50;;;0.60;99.90;;;;;;4913132;29;20269;-81
2021/03/06 07:50:29;;;;;;;0.50;0.50;;;0.60;99.90;;;;;;4912695;29;20260;-78
2021/03/06 07:52:57;;;;;;;0.57;0.57;;;0.70;99.90;;;;;;4913138;29;20263;-78
2021/03/06 07:55:26;;;;;;;0.50;0.50;;;0.80;99.90;;;;;;4913162;29;20229;-78
2021/03/06 07:58:04;;;;;;;0.50;0.50;;;0.90;99.90;;;;;;4913003;29;20585;-78
2021/03/06 08:00:44;;;;;;;0.50;0.50;;;0.90;99.90;;;;;;4913491;29;20227;-79
2021/03/06 08:03:37;;;;;;;0.50;0.50;;;1.00;99.90;;;;;;4912851;29;20718;-78
2021/03/06 08:06:22;;;;;;;0.50;0.50;;;1.00;99.90;;;;;;4913257;29;20244;-78
2021/03/06 08:09:09;;;;;;;0.50;0.50;;;1.10;99.90;;;;;;4908324;29;20233;-81
2021/03/06 08:11:44;;;;;;;0.50;0.50;;;1.10;99.90;;;;;;4901092;29;20206;-80
2021/03/06 08:14:33;;;;;;;0.50;0.50;;;1.20;99.90;;;;;;4915540;29;20219;-82
2021/03/06 08:16:59;;;;;;;0.50;0.50;;;1.30;99.90;;;;;;4913349;29;20212;-81
2021/03/06 08:19:30;;;;;;;0.50;0.50;;;1.30;99.90;;;;;;4908184;29;20546;-81
2021/03/06 08:22:13;;;;;;;0.50;0.50;;;1.30;99.90;;;;;;4895542;29;20268;-81
2021/03/06 08:24:39;;;;;;;0.50;0.50;;;1.50;99.90;;;;;;4913895;29;20743;-83
2021/03/06 08:27:17;;;;;;;0.50;0.50;;;1.60;99.90;;;;;;4919918;29;20304;-80
2021/03/06 08:29:44;;;;;;;0.50;0.50;;;1.60;99.90;;;;;;4913758;29;20228;-81
2021/03/06 08:32:13;;;;;;;0.50;0.50;;;1.80;99.90;;;;;;4914308;29;20263;-81
2021/03/06 08:34:44;;;;;;;0.50;0.50;;;1.80;99.90;;;;;;4915588;29;20221;-81
2021/03/06 08:37:38;;;;;;;0.50;0.50;;;1.90;99.90;;;;;;4912169;29;20205;-81
2021/03/06 08:40:07;;;;;;;0.50;0.50;;;2.00;99.90;;;;;;4913371;29;20256;-81
2021/03/06 08:42:35;;;;;;;0.50;0.50;;;2.10;99.90;;;;;;4912972;29;20202;-81
2021/03/06 08:45:05;;;;;;;0.50;0.50;;;2.10;99.90;;;;;;4913512;29;20691;-81
2021/03/06 08:47:34;;;;;;;0.50;0.50;;;2.20;99.90;;;;;;4912840;29;20209;-81
2021/03/06 08:50:06;;;;;;;0.50;0.50;;;2.30;99.90;;;;;;4913053;29;20261;-81
2021/03/06 08:52:32;;;;;;;0.50;0.50;;;2.40;99.90;;;;;;4912702;29;20672;-81
2021/03/06 08:54:59;;;;;;;0.50;0.50;;;2.50;99.90;;;;;;4912771;29;20207;-81
2021/03/06 08:57:29;;;;;;;0.50;0.50;;;2.60;99.90;;;;;;4912478;29;20425;-81
2021/03/06 08:59:56;;;;;;;0.50;0.50;;;2.60;99.90;;;;;;4912587;29;20277;-80
2021/03/06 09:02:28;;;;;;;0.60;0.60;;;2.70;99.90;;;;;;4912493;29;20209;-81
2021/03/06 09:05:05;;;;;;;0.52;0.52;;;2.80;99.90;;;;;;4904071;29;20275;-81
2021/03/06 09:07:32;;;;;;;0.55;0.55;;;2.80;99.90;;;;;;4912112;29;20666;-80
2021/03/06 09:10:14;;;;;;;0.52;0.52;;;2.80;99.90;;;;;;4912599;29;20708;-80
2021/03/06 09:12:41;;;;;;;0.50;0.50;;;2.80;99.90;;;;;;4910713;29;20208;-82
2021/03/06 09:15:08;;;;;;;0.50;0.50;;;2.90;99.90;;;;;;4896502;29;20264;-81
2021/03/06 09:17:35;;;;;;;0.50;0.50;;;2.90;99.90;;;;;;4900334;29;20205;-83
2021/03/06 09:20:04;;;;;;;0.50;0.50;;;3.00;99.90;;;;;;4910085;29;20201;-83
2021/03/06 09:25:06;;;;;;;0.50;0.50;;;2.90;99.90;;;;;;5247644;23;20591;-79
2021/03/06 09:27:43;;;;;;;0.60;0.60;;;2.90;99.90;;;;;;4903807;29;20580;-79
2021/03/06 09:30:22;;;;;;;0.50;0.50;;;2.90;99.90;;;;;;4881204;29;21574;-79
2021/03/06 09:32:48;;;;;;;0.50;0.50;;;2.60;99.90;;;;;;4903165;29;20205;-80
2021/03/06 09:35:17;;;;;;;0.60;0.60;;;2.80;99.90;;;;;;4890311;29;20206;-81
2021/03/06 09:40:25;;;;;;;0.50;0.50;;;2.80;99.90;;;;;;5089392;23;20244;-81
2021/03/06 09:42:52;;;;;;;0.60;0.60;;;2.60;99.90;;;;;;4912716;29;20633;-81
2021/03/06 09:45:18;;;;;;;0.50;0.50;;;2.80;99.90;;;;;;4913420;29;20228;-82
2021/03/06 09:47:45;;;;;;;0.50;0.50;;;2.80;99.90;;;;;;4913951;29;20217;-82
2021/03/06 09:50:16;;;;;;;0.50;0.50;;;2.80;99.90;;;;;;4913198;29;20815;-81
2021/03/06 09:52:52;;;;;;;0.50;0.50;;;2.70;99.90;;;;;;4922856;29;20559;-83
2021/03/06 09:55:29;;;;;;;0.50;0.50;;;3.10;99.90;;;;;;4928859;29;20213;-82
2021/03/06 09:58:29;;;;;;;0.50;0.50;;;2.80;99.90;;;;;;4943393;29;20228;-84
2021/03/06 10:01:17;;;;;;;0.50;0.50;;;2.80;99.90;;;;;;4935816;29;20212;-82
2021/03/06 10:06:48;;;;;;;0.45;0.45;;;3.80;99.90;;;;;;4924271;29;20213;-83
2021/03/06 10:13:13;;;;;;;0.50;0.50;;;3.40;99.90;;;;;;4844453;29;20727;-82
2021/03/06 10:18:21;;;;;;;0.50;0.50;;;3.30;99.90;;;;;;5737304;23;20249;-82
2021/03/06 10:20:57;;;;;;;0.50;0.50;;;3.40;99.90;;;;;;4913093;29;20200;-82
2021/03/06 10:34:59;;;;;;;0.50;0.50;;;4.00;99.90;;;;;;5030360;23;20237;-82
2021/03/06 10:37:41;;;;;;;0.50;0.50;;;3.50;99.90;;;;;;4887031;29;20198;-82
2021/03/06 10:48:52;;;;;;;0.50;0.50;;;3.90;99.90;;;;;;5713615;23;20245;-78
2021/03/06 10:52:18;;;;;;;0.60;0.60;;;5.60;99.90;;;;;;4893508;29;20712;-80
2021/03/06 10:57:52;;;;;;;0.57;0.57;;;3.70;99.90;;;;;;4862604;29;20236;-84
2021/03/06 11:00:22;;;;;;;0.50;0.50;;;3.70;99.90;;;;;;4892687;29;20760;-82
2021/03/06 11:02:58;;;;;;;0.57;0.57;;;3.80;99.90;;;;;;4880928;29;20234;-80
2021/03/06 11:14:11;;;;;;;0.60;0.60;;;4.20;99.90;;;;;;5217587;23;20257;-83
2021/03/06 11:17:08;;;;;;;;;;;;;;;;;;;;;
2021/03/06 11:25:32;;;;;;;0.50;0.50;;;4.20;99.90;;;;;;4933025;23;20602;-81
2021/03/06 11:28:08;;;;;;;0.50;0.50;;;4.60;99.90;;;;;;4920566;29;20239;-81
2021/03/06 11:31:28;;;;;;;0.50;0.50;;;4.20;99.90;;;;;;4919569;29;20244;-82
2021/03/06 11:36:51;;;;;;;0.50;0.50;;;6.60;99.90;;;;;;4901424;29;20224;-82
2021/03/06 11:39:22;;;;;;;0.50;0.50;;;4.30;99.90;;;;;;4923970;29;20620;-84
2021/03/06 11:41:49;;;;;;;0.55;0.55;;;4.10;99.90;;;;;;4918803;29;20217;-82
2021/03/06 11:44:18;;;;;;;0.50;0.50;;;4.30;99.90;;;;;;4911805;29;20209;-81
2021/03/06 11:46:47;;;;;;;0.57;0.57;;;4.40;99.90;;;;;;4910231;29;20209;-82
2021/03/06 11:49:14;;;;;;;0.60;0.60;;;4.50;99.90;;;;;;4912929;29;20236;-81
2021/03/06 11:51:40;;;;;;;0.50;0.50;;;4.60;99.90;;;;;;4911890;29;20228;-81
2021/03/06 11:54:06;;;;;;;0.50;0.50;;;4.60;99.90;;;;;;4913313;29;20209;-82
2021/03/06 11:56:33;;;;;;;0.60;0.60;;;4.60;99.90;;;;;;4913506;29;20209;-82
2021/03/06 11:58:59;;;;;;;0.60;0.60;;;4.50;99.90;;;;;;4913612;29;20589;-81
2021/03/06 12:01:28;;;;;;;0.60;0.60;;;4.40;99.90;;;;;;4912932;29;20201;-81
2021/03/06 12:04:03;;;;;;;0.52;0.52;;;4.50;99.90;;;;;;4922537;29;20197;-81
2021/03/06 12:06:35;;;;;;;0.52;0.52;;;4.50;99.90;;;;;;4931341;29;20209;-82
2021/03/06 12:09:02;;;;;;;0.52;0.52;;;5.70;99.90;;;;;;4928352;29;20322;-82
2021/03/06 12:11:30;;;;;;;0.50;0.50;;;4.70;99.90;;;;;;4932008;29;20229;-82
2021/03/06 12:13:56;;;;;;;0.50;0.50;;;4.20;99.90;;;;;;4929083;29;20205;-81
2021/03/06 12:16:22;;;;;;;0.50;0.50;;;6.10;99.90;;;;;;4916029;29;20224;-81
2021/03/06 12:18:49;;;;;;;0.52;0.52;;;4.40;99.90;;;;;;4923284;29;20228;-85
2021/03/06 12:21:19;;;;;;;0.60;0.60;;;4.40;99.90;;;;;;4919930;29;20256;-84
2021/03/06 12:41:56;;;;;;;0.50;0.50;;;4.50;99.90;;;;;;4925927;29;20197;-84
2021/03/06 12:44:36;;;;;;;0.50;0.50;;;6.20;99.90;;;;;;5071343;23;20244;-85
2021/03/06 12:47:17;;;;;;;0.60;0.60;;;4.60;99.90;;;;;;4969315;23;20372;-85
2021/03/06 12:52:18;;;;;;;0.50;0.50;;;4.70;99.90;;;;;;5047739;23;20251;-84
2021/03/06 12:54:45;;;;;;;0.50;0.50;;;5.50;99.90;;;;;;4913104;29;20216;-84
2021/03/06 12:57:15;;;;;;;0.50;0.50;;;4.70;99.90;;;;;;4913433;29;20201;-84
2021/03/06 13:23:22;;;;;;;0.50;0.50;;;4.60;99.90;;;;;;5099410;23;20703;-79
2021/03/06 13:25:48;;;;;;;0.50;0.50;;;4.70;99.90;;;;;;4911981;29;20212;-79
2021/03/06 13:28:14;;;;;;;0.50;0.50;;;4.70;99.90;;;;;;4912328;29;20643;-80
2021/03/06 13:30:40;;;;;;;0.60;0.60;;;4.80;99.90;;;;;;4911591;29;20288;-80
2021/03/06 13:33:07;;;;;;;0.50;0.50;;;5.10;99.90;;;;;;4911683;29;20205;-79
2021/03/06 13:35:33;;;;;;;0.50;0.50;;;5.70;99.90;;;;;;4909384;29;20212;-79
2021/03/06 13:37:59;;;;;;;0.50;0.50;;;5.60;99.90;;;;;;4909078;29;20209;-81
2021/03/06 13:40:27;;;;;;;0.52;0.52;;;5.70;99.90;;;;;;4917566;29;20197;-82
2021/03/06 13:45:45;;;;;;;0.50;0.50;;;5.50;99.90;;;;;;5417263;23;20252;-85
2021/03/06 13:48:16;;;;;;;0.52;0.52;;;5.50;99.90;;;;;;5016803;23;20252;-85
2021/03/06 13:55:49;;;;;;;0.50;0.50;;;5.50;99.90;;;;;;4920037;29;20609;-80
2021/03/06 13:58:15;;;;;;;0.50;0.50;;;5.50;99.90;;;;;;4914331;29;20205;-83
2021/03/06 14:00:41;;;;;;;0.50;0.50;;;5.50;99.90;;;;;;4926838;29;20208;-80
2021/03/06 14:03:08;;;;;;;0.50;0.50;;;5.80;99.90;;;;;;4947655;29;20236;-81
2021/03/06 14:05:35;;;;;;;0.50;0.50;;;5.80;99.90;;;;;;4928447;29;20205;-82
2021/03/06 14:08:05;;;;;;;0.50;0.50;;;5.80;99.90;;;;;;4972475;23;20241;-81
2021/03/06 14:10:34;;;;;;;0.57;0.57;;;4.80;99.90;;;;;;4939913;29;20220;-82
2021/03/06 14:15:49;;;;;;;0.60;0.60;;;5.50;99.90;;;;;;4949885;23;20232;-82
2021/03/06 14:18:23;;;;;;;0.60;0.60;;;5.60;99.90;;;;;;4941497;29;20205;-82
2021/03/06 14:20:58;;;;;;;0.60;0.60;;;5.50;99.90;;;;;;4940354;29;20232;-83
2021/03/06 14:23:25;;;;;;;0.60;0.60;;;5.90;99.90;;;;;;4939004;29;20205;-83
2021/03/06 14:25:55;;;;;;;0.50;0.50;;;5.60;99.90;;;;;;4939394;29;20213;-84
2021/03/06 14:28:27;;;;;;;0.60;0.60;;;5.80;99.90;;;;;;4940642;29;20239;-83
2021/03/06 14:31:02;;;;;;;0.60;0.60;;;5.50;99.90;;;;;;4941117;29;20201;-83
2021/03/06 14:33:31;;;;;;;0.60;0.60;;;5.40;99.90;;;;;;5100128;23;20235;-83
2021/03/06 14:38:42;;;;;;;0.60;0.60;;;6.40;99.90;;;;;;4878850;27;20265;-82
2021/03/06 14:41:21;;;;;;;0.50;0.50;;;5.40;99.90;;;;;;4905222;29;20198;-83
2021/03/06 14:43:51;;;;;;;0.60;0.60;;;5.40;99.90;;;;;;4920902;29;20221;-82
2021/03/06 14:46:18;;;;;;;0.60;0.60;;;5.60;99.90;;;;;;4921793;29;20213;-83
2021/03/06 14:48:45;;;;;;;0.60;0.60;;;5.40;99.90;;;;;;4917874;29;20221;-83
2021/03/06 14:51:34;;;;;;;0.60;0.60;;;5.50;99.90;;;;;;4923289;29;20217;-84
2021/03/06 14:54:18;;;;;;;;;;;;;;;;;;;;;
2021/03/06 14:57:02;;;;;;;0.52;0.52;;;5.40;99.90;;;;;;5100104;23;20249;-82
2021/03/06 14:59:30;;;;;;;0.60;0.60;;;4.80;99.90;;;;;;5531959;23;20303;-87